Aérodrome :
LOGIN :

S'inscrire | Disclaimer

   EN    FR    IT 

 










Légende :    VFR   VFR Marginal   IFR   IFR Intensif   IFR Très Intensif
Visi : 
Plafond : 
>= 8 km
>= 3000ft
5 à 8 km
1000 à 3000 ft
1500m à 5 km
500 à 1000 ft
800 à 1500m
200 à 500 ft
< 800m
< 200 ft
Symboles :   Orages  Brouillard  Fortes neiges  Fortes précipitations  Vent > 20 kt
SIGMETs :   Divers  Orages  Givrage  Turbulence  Onde Orograph.  Cendres Volcan.







- Altitude de l'aérodrome : 913 ft
- Voir les cartes d'approche


LFSX - Luxeuil

DERNIER METAR :
  • 181530Z AUTO 28005KT 260V320 CAVOK 29/14 Q1016 NOSIG

METARs EXPIRÉS :
  • 181500Z AUTO 28008KT 250V310 CAVOK 29/14 Q1016 NOSIG
  • 181430Z AUTO 27010KT 200V300 CAVOK 29/14 Q1016 NOSIG
  • 181400Z AUTO 23008KT 190V270 CAVOK 29/14 Q1016
  • 181330Z AUTO 22005KT 140V260 CAVOK 29/13 Q1016 TEMPO VRB15KT SHRA SCT040CB
  • 181300Z AUTO 24008KT 130V300 CAVOK 29/13 Q1017 TEMPO SHRA SCT040CB

TAF TAF LFSX
Valide du 18 à 15h jusqu'au 19 à 15h UTC


181400Z 1815/1915 VRB05KT CAVOK
Pas de NOTAMs connus pour ce terrain.
1 SIGMET publié pour la FIR Reims (LFEE) :
 
Orages noyés dans la masse
LFEE SIGMET 1 VALID 181450/181700 LFPW
LFEE REIMS FIR/UIR EMBD TS OBS WI N4700 E00430 - N4730 E00415 - N4830 E00545 - N4845 E00630 - N4700 E00430 TOP FL380 MOV NE 10KT NC=



MET'MAP, la Météo Aéronautique d'un coup d'oeil ! - Copyright ORBIFLY Décembre 2007 - Disclaimer

ORBIFLY MET'MAP TEAM :

Programmation & Développement : Alexandra Zaïnal
Conception & Développement : Baudouin d'Aumeries
Co-Programmation & Développement : Marc-Olivier Méhu
Soutien technique & logistique : Manuel Goepfert

Contact : metmap@orbifly.com




SOURCES & CREDITS :

   NOAA